sensor_id;sensor_type;location;lat;lon;timestamp;P1;durP1;ratioP1;P2;durP2;ratioP2
23668;SDS011;12011;47.422;15.018;2022-08-01T17:09:19;2.17;;;2.15;;
23668;SDS011;12011;47.422;15.018;2022-08-01T17:11:49;2.45;;;2.45;;
23668;SDS011;12011;47.422;15.018;2022-08-01T17:14:19;2.21;;;2.21;;
23668;SDS011;12011;47.422;15.018;2022-08-01T17:16:49;2.03;;;2.03;;
23668;SDS011;12011;47.422;15.018;2022-08-01T17:19:18;2.01;;;2.01;;
23668;SDS011;12011;47.422;15.018;2022-08-01T17:21:48;1.97;;;1.97;;
23668;SDS011;12011;47.422;15.018;2022-08-01T17:24:20;2.00;;;2.00;;
23668;SDS011;12011;47.422;15.018;2022-08-01T17:26:50;2.27;;;2.27;;
23668;SDS011;12011;47.422;15.018;2022-08-01T17:29:20;2.27;;;2.27;;
23668;SDS011;12011;47.422;15.018;2022-08-01T17:31:51;2.13;;;2.13;;
23668;SDS011;12011;47.422;15.018;2022-08-01T17:34:21;2.27;;;2.27;;
23668;SDS011;12011;47.422;15.018;2022-08-01T17:36:51;2.26;;;2.26;;
23668;SDS011;12011;47.422;15.018;2022-08-01T17:39:23;2.21;;;2.21;;
23668;SDS011;12011;47.422;15.018;2022-08-01T17:41:53;2.01;;;2.01;;
23668;SDS011;12011;47.422;15.018;2022-08-01T17:44:23;2.29;;;2.29;;
23668;SDS011;12011;47.422;15.018;2022-08-01T17:46:53;2.23;;;2.23;;
23668;SDS011;12011;47.422;15.018;2022-08-01T17:49:23;2.10;;;2.10;;
23668;SDS011;12011;47.422;15.018;2022-08-01T17:51:52;2.03;;;2.03;;
23668;SDS011;12011;47.422;15.018;2022-08-01T17:54:25;2.17;;;2.17;;
23668;SDS011;12011;47.422;15.018;2022-08-01T17:56:55;2.14;;;2.14;;
23668;SDS011;12011;47.422;15.018;2022-08-01T17:59:24;2.21;;;2.21;;
23668;SDS011;12011;47.422;15.018;2022-08-01T18:01:54;2.11;;;2.11;;
23668;SDS011;12011;47.422;15.018;2022-08-01T18:04:24;2.19;;;2.19;;
23668;SDS011;12011;47.422;15.018;2022-08-01T18:06:54;2.07;;;2.07;;
23668;SDS011;12011;47.422;15.018;2022-08-01T18:09:26;2.23;;;2.23;;
23668;SDS011;12011;47.422;15.018;2022-08-01T18:11:57;2.71;;;2.71;;
23668;SDS011;12011;47.422;15.018;2022-08-01T18:14:27;2.63;;;2.63;;
23668;SDS011;12011;47.422;15.018;2022-08-01T18:16:57;2.57;;;2.57;;
23668;SDS011;12011;47.422;15.018;2022-08-01T18:19:27;2.44;;;2.44;;
23668;SDS011;12011;47.422;15.018;2022-08-01T18:21:57;2.67;;;2.67;;
23668;SDS011;12011;47.422;15.018;2022-08-01T18:24:29;2.60;;;2.60;;
23668;SDS011;12011;47.422;15.018;2022-08-01T18:26:59;2.78;;;2.78;;
23668;SDS011;12011;47.422;15.018;2022-08-01T18:29:29;2.54;;;2.54;;
23668;SDS011;12011;47.422;15.018;2022-08-01T18:31:58;2.42;;;2.42;;
23668;SDS011;12011;47.422;15.018;2022-08-01T18:34:29;2.20;;;2.20;;
23668;SDS011;12011;47.422;15.018;2022-08-01T18:36:59;2.30;;;2.30;;
23668;SDS011;12011;47.422;15.018;2022-08-01T18:39:32;2.22;;;2.22;;
23668;SDS011;12011;47.422;15.018;2022-08-01T18:42:02;2.11;;;2.11;;
23668;SDS011;12011;47.422;15.018;2022-08-01T18:44:31;2.33;;;2.33;;
23668;SDS011;12011;47.422;15.018;2022-08-01T18:47:01;2.17;;;2.17;;
23668;SDS011;12011;47.422;15.018;2022-08-01T18:49:32;2.14;;;2.14;;
23668;SDS011;12011;47.422;15.018;2022-08-01T18:52:01;2.35;;;2.35;;
23668;SDS011;12011;47.422;15.018;2022-08-01T18:54:34;2.22;;;2.22;;
23668;SDS011;12011;47.422;15.018;2022-08-01T18:57:04;2.21;;;2.21;;
23668;SDS011;12011;47.422;15.018;2022-08-01T18:59:34;2.15;;;2.15;;
23668;SDS011;12011;47.422;15.018;2022-08-01T19:02:04;2.28;;;2.28;;
23668;SDS011;12011;47.422;15.018;2022-08-01T19:04:35;2.15;;;2.15;;
23668;SDS011;12011;47.422;15.018;2022-08-01T19:07:07;2.30;;;2.30;;
23668;SDS011;12011;47.422;15.018;2022-08-01T19:09:39;2.16;;;2.16;;
23668;SDS011;12011;47.422;15.018;2022-08-01T19:12:09;2.04;;;2.04;;
23668;SDS011;12011;47.422;15.018;2022-08-01T19:14:38;1.89;;;1.89;;
23668;SDS011;12011;47.422;15.018;2022-08-01T19:17:08;2.04;;;2.04;;
23668;SDS011;12011;47.422;15.018;2022-08-01T19:19:39;1.89;;;1.89;;
23668;SDS011;12011;47.422;15.018;2022-08-01T19:22:09;2.01;;;2.01;;
23668;SDS011;12011;47.422;15.018;2022-08-01T19:24:41;2.18;;;2.18;;
23668;SDS011;12011;47.422;15.018;2022-08-01T19:27:11;2.01;;;2.01;;
23668;SDS011;12011;47.422;15.018;2022-08-01T19:29:46;2.17;;;2.17;;
23668;SDS011;12011;47.422;15.018;2022-08-01T19:32:21;2.13;;;2.13;;
23668;SDS011;12011;47.422;15.018;2022-08-01T19:34:55;2.20;;;2.20;;
23668;SDS011;12011;47.422;15.018;2022-08-01T19:37:33;3.11;;;3.11;;
23668;SDS011;12011;47.422;15.018;2022-08-01T19:40:08;3.17;;;3.17;;
23668;SDS011;12011;47.422;15.018;2022-08-01T19:42:40;3.74;;;3.74;;
23668;SDS011;12011;47.422;15.018;2022-08-01T19:45:11;2.70;;;2.70;;
23668;SDS011;12011;47.422;15.018;2022-08-01T19:47:41;2.39;;;2.39;;
23668;SDS011;12011;47.422;15.018;2022-08-01T19:50:12;2.45;;;2.45;;
23668;SDS011;12011;47.422;15.018;2022-08-01T19:52:41;2.21;;;2.21;;
23668;SDS011;12011;47.422;15.018;2022-08-01T19:55:17;2.22;;;2.22;;
23668;SDS011;12011;47.422;15.018;2022-08-01T19:57:47;2.22;;;2.22;;
23668;SDS011;12011;47.422;15.018;2022-08-01T20:00:19;2.15;;;2.15;;
23668;SDS011;12011;47.422;15.018;2022-08-01T20:02:49;2.31;;;2.31;;
23668;SDS011;12011;47.422;15.018;2022-08-01T20:05:24;2.16;;;2.16;;
23668;SDS011;12011;47.422;15.018;2022-08-01T20:07:54;2.25;;;2.25;;
23668;SDS011;12011;47.422;15.018;2022-08-01T20:10:26;2.33;;;2.33;;
23668;SDS011;12011;47.422;15.018;2022-08-01T20:12:58;2.03;;;2.03;;
23668;SDS011;12011;47.422;15.018;2022-08-01T20:15:30;2.16;;;2.16;;
23668;SDS011;12011;47.422;15.018;2022-08-01T20:18:00;2.33;;;2.33;;
23668;SDS011;12011;47.422;15.018;2022-08-01T20:20:29;2.12;;;2.12;;
23668;SDS011;12011;47.422;15.018;2022-08-01T20:23:00;2.50;;;2.50;;
23668;SDS011;12011;47.422;15.018;2022-08-01T20:25:36;2.34;;;2.34;;
23668;SDS011;12011;47.422;15.018;2022-08-01T20:28:11;2.10;;;2.10;;
23668;SDS011;12011;47.422;15.018;2022-08-01T20:30:42;2.09;;;2.09;;
23668;SDS011;12011;47.422;15.018;2022-08-01T20:33:13;2.06;;;2.06;;
23668;SDS011;12011;47.422;15.018;2022-08-01T20:35:45;2.09;;;2.09;;
23668;SDS011;12011;47.422;15.018;2022-08-01T20:38:15;2.27;;;2.27;;
23668;SDS011;12011;47.422;15.018;2022-08-01T20:40:50;2.13;;;2.13;;
23668;SDS011;12011;47.422;15.018;2022-08-01T20:43:23;2.06;;;2.06;;
23668;SDS011;12011;47.422;15.018;2022-08-01T20:45:53;2.38;;;2.38;;
23668;SDS011;12011;47.422;15.018;2022-08-01T20:48:25;2.65;;;2.65;;
23668;SDS011;12011;47.422;15.018;2022-08-01T20:50:57;2.49;;;2.49;;
23668;SDS011;12011;47.422;15.018;2022-08-01T20:53:41;2.48;;;2.48;;
23668;SDS011;12011;47.422;15.018;2022-08-01T20:56:19;2.41;;;2.41;;
23668;SDS011;12011;47.422;15.018;2022-08-01T20:58:59;2.42;;;2.42;;
23668;SDS011;12011;47.422;15.018;2022-08-01T21:01:38;2.92;;;2.92;;
23668;SDS011;12011;47.422;15.018;2022-08-01T21:04:27;3.13;;;3.13;;
23668;SDS011;12011;47.422;15.018;2022-08-01T21:07:17;2.88;;;2.88;;
23668;SDS011;12011;47.422;15.018;2022-08-01T21:09:53;2.88;;;2.88;;
23668;SDS011;12011;47.422;15.018;2022-08-01T21:12:36;2.71;;;2.71;;
23668;SDS011;12011;47.422;15.018;2022-08-01T21:15:14;2.47;;;2.47;;
23668;SDS011;12011;47.422;15.018;2022-08-01T21:17:56;2.55;;;2.55;;
23668;SDS011;12011;47.422;15.018;2022-08-01T21:20:32;2.55;;;2.55;;
23668;SDS011;12011;47.422;15.018;2022-08-01T21:23:08;2.68;;;2.68;;
23668;SDS011;12011;47.422;15.018;2022-08-01T21:25:48;2.54;;;2.54;;
23668;SDS011;12011;47.422;15.018;2022-08-01T21:28:24;2.71;;;2.71;;
23668;SDS011;12011;47.422;15.018;2022-08-01T21:30:56;2.63;;;2.63;;
23668;SDS011;12011;47.422;15.018;2022-08-01T21:33:27;2.59;;;2.59;;
23668;SDS011;12011;47.422;15.018;2022-08-01T21:35:58;2.47;;;2.47;;
23668;SDS011;12011;47.422;15.018;2022-08-01T21:38:28;2.72;;;2.72;;
23668;SDS011;12011;47.422;15.018;2022-08-01T21:41:06;2.80;;;2.80;;
23668;SDS011;12011;47.422;15.018;2022-08-01T21:43:39;2.96;;;2.96;;
23668;SDS011;12011;47.422;15.018;2022-08-01T21:46:14;2.61;;;2.61;;
23668;SDS011;12011;47.422;15.018;2022-08-01T21:48:45;2.85;;;2.85;;
23668;SDS011;12011;47.422;15.018;2022-08-01T21:51:20;2.95;;;2.95;;
23668;SDS011;12011;47.422;15.018;2022-08-01T21:54:06;2.77;;;2.77;;
23668;SDS011;12011;47.422;15.018;2022-08-01T21:56:52;2.93;;;2.93;;
23668;SDS011;12011;47.422;15.018;2022-08-01T21:59:39;2.86;;;2.86;;
23668;SDS011;12011;47.422;15.018;2022-08-01T22:02:19;2.84;;;2.84;;
23668;SDS011;12011;47.422;15.018;2022-08-01T22:04:57;2.89;;;2.89;;
23668;SDS011;12011;47.422;15.018;2022-08-01T22:07:34;2.59;;;2.59;;
23668;SDS011;12011;47.422;15.018;2022-08-01T22:10:09;2.87;;;2.87;;
23668;SDS011;12011;47.422;15.018;2022-08-01T22:12:43;3.17;;;3.17;;
23668;SDS011;12011;47.422;15.018;2022-08-01T22:15:18;3.28;;;3.28;;
23668;SDS011;12011;47.422;15.018;2022-08-01T22:17:51;3.04;;;3.04;;
23668;SDS011;12011;47.422;15.018;2022-08-01T22:20:21;3.33;;;3.33;;
23668;SDS011;12011;47.422;15.018;2022-08-01T22:22:55;3.11;;;3.11;;
23668;SDS011;12011;47.422;15.018;2022-08-01T22:25:25;3.09;;;3.09;;
23668;SDS011;12011;47.422;15.018;2022-08-01T22:27:57;2.96;;;2.96;;
23668;SDS011;12011;47.422;15.018;2022-08-01T22:30:32;3.41;;;3.41;;
23668;SDS011;12011;47.422;15.018;2022-08-01T22:33:08;3.06;;;3.06;;
23668;SDS011;12011;47.422;15.018;2022-08-01T22:35:38;3.12;;;3.12;;
23668;SDS011;12011;47.422;15.018;2022-08-01T22:38:08;3.08;;;3.08;;
23668;SDS011;12011;47.422;15.018;2022-08-01T22:40:39;3.13;;;3.13;;
23668;SDS011;12011;47.422;15.018;2022-08-01T22:43:17;3.36;;;3.36;;
23668;SDS011;12011;47.422;15.018;2022-08-01T22:46:04;3.63;;;3.63;;
23668;SDS011;12011;47.422;15.018;2022-08-01T22:48:50;3.87;;;3.87;;
23668;SDS011;12011;47.422;15.018;2022-08-01T22:51:30;3.42;;;3.42;;
23668;SDS011;12011;47.422;15.018;2022-08-01T22:54:10;3.52;;;3.52;;
23668;SDS011;12011;47.422;15.018;2022-08-01T22:56:43;3.50;;;3.50;;
23668;SDS011;12011;47.422;15.018;2022-08-01T22:59:19;3.56;;;3.56;;
23668;SDS011;12011;47.422;15.018;2022-08-01T23:01:59;3.80;;;3.80;;
23668;SDS011;12011;47.422;15.018;2022-08-01T23:04:33;3.43;;;3.43;;
23668;SDS011;12011;47.422;15.018;2022-08-01T23:07:07;3.52;;;3.52;;
23668;SDS011;12011;47.422;15.018;2022-08-01T23:09:40;3.66;;;3.66;;
23668;SDS011;12011;47.422;15.018;2022-08-01T23:12:10;3.40;;;3.40;;
23668;SDS011;12011;47.422;15.018;2022-08-01T23:14:41;3.52;;;3.52;;
23668;SDS011;12011;47.422;15.018;2022-08-01T23:17:13;3.44;;;3.44;;
23668;SDS011;12011;47.422;15.018;2022-08-01T23:19:46;3.64;;;3.64;;
23668;SDS011;12011;47.422;15.018;2022-08-01T23:22:17;3.45;;;3.45;;
23668;SDS011;12011;47.422;15.018;2022-08-01T23:24:49;3.56;;;3.56;;
23668;SDS011;12011;47.422;15.018;2022-08-01T23:27:20;3.60;;;3.60;;
23668;SDS011;12011;47.422;15.018;2022-08-01T23:29:55;3.36;;;3.36;;
23668;SDS011;12011;47.422;15.018;2022-08-01T23:32:28;3.47;;;3.47;;
23668;SDS011;12011;47.422;15.018;2022-08-01T23:34:58;3.60;;;3.60;;
23668;SDS011;12011;47.422;15.018;2022-08-01T23:37:27;3.62;;;3.62;;
23668;SDS011;12011;47.422;15.018;2022-08-01T23:39:57;3.58;;;3.58;;
23668;SDS011;12011;47.422;15.018;2022-08-01T23:42:27;3.76;;;3.76;;
23668;SDS011;12011;47.422;15.018;2022-08-01T23:44:56;3.56;;;3.56;;
23668;SDS011;12011;47.422;15.018;2022-08-01T23:47:29;3.44;;;3.44;;
23668;SDS011;12011;47.422;15.018;2022-08-01T23:49:58;3.46;;;3.46;;
23668;SDS011;12011;47.422;15.018;2022-08-01T23:52:28;3.57;;;3.57;;
23668;SDS011;12011;47.422;15.018;2022-08-01T23:54:58;3.40;;;3.40;;
23668;SDS011;12011;47.422;15.018;2022-08-01T23:57:28;3.53;;;3.53;;
23668;SDS011;12011;47.422;15.018;2022-08-01T23:59:58;3.75;;;3.75;;
